Time;durP1;ratioP1;P1;durP2;ratioP2;P2;SDS_P1;SDS_P2;PMS_P1;PMS_P2;Temp;Humidity;BMP_temperature;BMP_pressure;BME280_temperature;BME280_humidity;BME280_pressure;Samples;Min_cycle;Max_cycle;Signal;HPM_P1;HPM_P2
2022/05/13 00:01:28;;;;;;;;;;;23.50;42.20;;;;;;6177781;28;19936;-53
2022/05/13 00:04:30;;;;;;;;;;;23.80;42.50;;;;;;6172271;28;20193;-54
2022/05/13 00:07:32;;;;;;;;;;;23.50;42.20;;;;;;6182238;28;19929;-52
2022/05/13 00:10:34;;;;;;;;;;;23.30;42.10;;;;;;6182079;28;20024;-51
2022/05/13 00:13:35;;;;;;;;;;;23.60;42.40;;;;;;6173838;28;19968;-51
2022/05/13 00:16:36;;;;;;;;;;;23.20;42.10;;;;;;6184857;28;20214;-51
2022/05/13 00:19:38;;;;;;;;;;;23.30;42.20;;;;;;6175683;28;20954;-52
2022/05/13 00:22:44;;;;;;;;;;;23.20;42.20;;;;;;6179934;28;20890;-50
2022/05/13 00:25:45;;;;;;;;;;;23.50;42.30;;;;;;6181874;28;20010;-50
2022/05/13 00:28:47;;;;;;;;;;;23.50;42.30;;;;;;6170771;28;19932;-47
2022/05/13 00:31:48;;;;;;;;;;;23.50;42.40;;;;;;6185112;28;19937;-49
2022/05/13 00:34:50;;;;;;;;;;;23.40;42.30;;;;;;6186852;28;20028;-51
2022/05/13 00:37:52;;;;;;;;;;;23.70;42.50;;;;;;6187035;28;19927;-54
2022/05/13 00:40:53;;;;;;;;;;;23.40;42.30;;;;;;6180004;28;20076;-51
2022/05/13 00:43:54;;;;;;;;;;;23.50;42.50;;;;;;6186214;28;20726;-51
2022/05/13 00:46:56;;;;;;;;;;;23.00;42.20;;;;;;6186547;28;19928;-54
2022/05/13 00:49:59;;;;;;;;;;;23.30;42.30;;;;;;6188819;28;19924;-54
2022/05/13 00:53:02;;;;;;;;;;;23.10;42.20;;;;;;6184565;28;19968;-51
2022/05/13 00:56:05;;;;;;;;;;;23.40;42.40;;;;;;6183045;28;20015;-53
2022/05/13 00:59:07;;;;;;;;;;;23.60;42.50;;;;;;6166158;28;19928;-50
2022/05/13 01:02:08;;;;;;;;;;;23.30;42.40;;;;;;6180522;28;20747;-51
2022/05/13 01:05:10;;;;;;;;;;;23.10;42.30;;;;;;6186994;28;19928;-53
2022/05/13 01:08:12;;;;;;;;;;;23.40;42.50;;;;;;6185746;28;19929;-51
2022/05/13 01:11:15;;;;;;;;;;;23.00;42.30;;;;;;6190871;28;19976;-51
2022/05/13 01:14:21;;;;;;;;;;;23.20;42.40;;;;;;6188504;28;20894;-48
2022/05/13 01:20:39;;;;;;;;;;;23.30;42.50;;;;;;6170310;28;20785;-52
2022/05/13 01:23:43;;;;;;;;;;;23.00;42.40;;;;;;6188594;28;20053;-55
2022/05/13 01:26:45;;;;;;;;;;;23.20;42.50;;;;;;6167498;28;20262;-51
2022/05/13 01:29:48;;;;;;;;;;;23.00;42.40;;;;;;6170229;28;20109;-48
2022/05/13 01:32:50;;;;;;;;;;;23.20;42.50;;;;;;6171779;28;20356;-48
2022/05/13 01:35:53;;;;;;;;;;;23.00;42.40;;;;;;6175024;28;19999;-52
2022/05/13 01:38:55;;;;;;;;;;;23.20;42.50;;;;;;6171736;28;20705;-50
2022/05/13 01:41:57;;;;;;;;;;;23.10;42.50;;;;;;6148839;28;20199;-53
2022/05/13 01:44:58;;;;;;;;;;;22.90;42.40;;;;;;6170966;28;20444;-50
2022/05/13 01:47:59;;;;;;;;;;;22.90;42.50;;;;;;6171422;28;19932;-51
2022/05/13 01:51:01;;;;;;;;;;;23.10;42.60;;;;;;6170285;28;19928;-48
2022/05/13 01:54:03;;;;;;;;;;;23.20;43.20;;;;;;6170974;28;19925;-48
2022/05/13 01:57:05;;;;;;;;;;;23.20;42.60;;;;;;6165780;28;20496;-52
2022/05/13 02:00:07;;;;;;;;;;;23.40;42.70;;;;;;6174860;28;20004;-50
2022/05/13 02:06:28;;;;;;;;;;;23.40;42.70;;;;;;6155344;28;19928;-51
2022/05/13 02:09:30;;;;;;;;;;;23.20;42.80;;;;;;6173697;28;20396;-53
2022/05/13 02:12:31;;;;;;;;;;;22.70;42.50;;;;;;6170271;28;19925;-51
2022/05/13 02:15:33;;;;;;;;;;;23.20;42.70;;;;;;6173685;28;20025;-46
2022/05/13 02:18:34;;;;;;;;;;;22.90;42.60;;;;;;6170413;28;19932;-52
2022/05/13 02:21:36;;;;;;;;;;;23.20;42.70;;;;;;6174599;28;19928;-49
2022/05/13 02:24:38;;;;;;;;;;;23.10;42.70;;;;;;6169321;28;20249;-48
2022/05/13 02:27:40;;;;;;;;;;;23.10;42.60;;;;;;6170969;28;20716;-54
2022/05/13 02:30:41;;;;;;;;;;;22.90;42.50;;;;;;6168668;28;20537;-47
2022/05/13 02:33:43;;;;;;;;;;;23.10;42.60;;;;;;6171013;28;20846;-49
2022/05/13 02:36:45;;;;;;;;;;;22.80;42.50;;;;;;6171407;28;20248;-52
2022/05/13 02:39:47;;;;;;;;;;;23.10;42.70;;;;;;6172794;28;20488;-53
2022/05/13 02:42:48;;;;;;;;;;;23.00;42.70;;;;;;6158052;28;20040;-51
2022/05/13 02:45:50;;;;;;;;;;;23.20;42.80;;;;;;6159698;28;20394;-53
2022/05/13 02:48:52;;;;;;;;;;;23.00;42.70;;;;;;6169962;28;20164;-50
2022/05/13 02:51:54;;;;;;;;;;;23.20;42.80;;;;;;6172017;28;20372;-49
2022/05/13 02:54:56;;;;;;;;;;;22.80;42.60;;;;;;6170603;28;19936;-51
2022/05/13 02:57:57;;;;;;;;;;;23.10;42.70;;;;;;6169546;28;19936;-49
2022/05/13 03:00:59;;;;;;;;;;;23.30;42.90;;;;;;6165920;28;20015;-49
2022/05/13 03:04:07;;;;;;;;;;;23.10;42.70;;;;;;6170679;28;20667;-52
2022/05/13 03:07:09;;;;;;;;;;;22.90;42.70;;;;;;6167475;28;19925;-49
2022/05/13 03:10:11;;;;;;;;;;;23.10;42.80;;;;;;6168197;28;20472;-48
2022/05/13 03:13:16;;;;;;;;;;;22.90;42.60;;;;;;6156846;28;20923;-51
2022/05/13 03:16:19;;;;;;;;;;;22.80;42.60;;;;;;6174532;28;19960;-52
2022/05/13 03:19:20;;;;;;;;;;;22.70;42.60;;;;;;6142751;28;19932;-49
2022/05/13 03:22:22;;;;;;;;;;;22.80;42.70;;;;;;6143909;28;19977;-52
2022/05/13 03:25:24;;;;;;;;;;;22.80;42.60;;;;;;6168657;28;20375;-53
2022/05/13 03:28:26;;;;;;;;;;;22.90;42.70;;;;;;6165983;28;20158;-50
2022/05/13 03:31:27;;;;;;;;;;;22.90;42.70;;;;;;6178244;28;20525;-51
2022/05/13 03:34:28;;;;;;;;;;;23.40;43.00;;;;;;6171658;28;19932;-51
2022/05/13 03:37:30;;;;;;;;;;;23.10;42.80;;;;;;6175962;28;19925;-50
2022/05/13 03:40:32;;;;;;;;;;;22.90;42.80;;;;;;6186837;28;19999;-50
2022/05/13 03:43:33;;;;;;;;;;;23.00;42.80;;;;;;6178604;28;20802;-54
2022/05/13 03:46:35;;;;;;;;;;;23.60;43.10;;;;;;6181416;28;20384;-52
2022/05/13 03:49:36;;;;;;;;;;;23.30;43.00;;;;;;6169348;28;20447;-49
2022/05/13 03:52:38;;;;;;;;;;;23.10;42.80;;;;;;6168625;28;20271;-51
2022/05/13 03:55:41;;;;;;;;;;;23.00;42.80;;;;;;6153445;28;20175;-50
2022/05/13 03:58:42;;;;;;;;;;;23.10;42.80;;;;;;6158767;28;20047;-49
2022/05/13 04:01:43;;;;;;;;;;;23.00;42.80;;;;;;6159583;28;19948;-51
2022/05/13 04:11:22;;;;;;;;;;;23.00;42.80;;;;;;6165479;28;20019;-51
2022/05/13 04:17:38;;;;;;;;;;;22.70;42.60;;;;;;6164797;28;19925;-49
2022/05/13 04:20:39;;;;;;;;;;;23.10;42.90;;;;;;6160805;28;20387;-48
2022/05/13 04:23:42;;;;;;;;;;;22.60;42.60;;;;;;6146527;28;20217;-47
2022/05/13 04:26:44;;;;;;;;;;;22.90;42.80;;;;;;6143323;28;19927;-48
2022/05/13 04:29:45;;;;;;;;;;;22.70;42.60;;;;;;6103361;28;20056;-49
2022/05/13 04:32:46;;;;;;;;;;;22.70;42.70;;;;;;6144460;28;19936;-50
2022/05/13 04:35:48;;;;;;;;;;;22.80;42.80;;;;;;6149036;28;19968;-51
2022/05/13 04:38:49;;;;;;;;;;;22.80;42.80;;;;;;6155986;28;20015;-50
2022/05/13 04:45:12;;;;;;;;;;;22.50;42.70;;;;;;6144162;28;20123;-50
2022/05/13 04:48:16;;;;;;;;;;;22.80;42.90;;;;;;6156027;28;20411;-52
2022/05/13 04:51:18;;;;;;;;;;;23.10;43.00;;;;;;6148267;28;20079;-49
2022/05/13 04:54:20;;;;;;;;;;;22.70;42.80;;;;;;6132257;28;20800;-50
2022/05/13 04:57:22;;;;;;;;;;;23.20;43.10;;;;;;6152425;28;20954;-49
2022/05/13 05:00:23;;;;;;;;;;;22.70;42.80;;;;;;6148749;28;20040;-46
2022/05/13 05:03:27;;;;;;;;;;;22.50;42.80;;;;;;6154290;28;20846;-49
2022/05/13 05:06:31;;;;;;;;;;;22.90;43.00;;;;;;6135129;28;20362;-49
2022/05/13 05:09:35;;;;;;;;;;;22.90;42.90;;;;;;6157708;28;20047;-53
2022/05/13 05:12:37;;;;;;;;;;;22.90;43.00;;;;;;6159261;28;19956;-50
2022/05/13 05:15:39;;;;;;;;;;;22.80;43.00;;;;;;6160078;28;20036;-50
2022/05/13 05:18:40;;;;;;;;;;;22.90;43.10;;;;;;6148819;28;19960;-48
2022/05/13 05:21:42;;;;;;;;;;;22.90;43.00;;;;;;6156325;28;20504;-51
2022/05/13 05:24:45;;;;;;;;;;;22.50;42.70;;;;;;6163883;28;19929;-50
2022/05/13 05:27:47;;;;;;;;;;;22.90;42.90;;;;;;6161283;28;19960;-51
2022/05/13 05:30:50;;;;;;;;;;;22.80;42.90;;;;;;6153184;28;19965;-52
2022/05/13 05:33:51;;;;;;;;;;;22.60;42.70;;;;;;6170607;28;19928;-52
2022/05/13 05:36:52;;;;;;;;;;;22.70;43.00;;;;;;6164323;28;20056;-52
2022/05/13 05:39:54;;;;;;;;;;;22.60;42.90;;;;;;6164064;28;19937;-50
2022/05/13 05:42:56;;;;;;;;;;;22.80;43.00;;;;;;6169338;28;21347;-49
2022/05/13 05:45:58;;;;;;;;;;;22.90;43.00;;;;;;6158125;28;20604;-49
2022/05/13 05:48:59;;;;;;;;;;;22.60;42.90;;;;;;6149715;28;19929;-49
2022/05/13 05:52:01;;;;;;;;;;;22.90;43.00;;;;;;6151616;28;19925;-47
2022/05/13 05:58:19;;;;;;;;;;;22.40;42.80;;;;;;6146320;28;19929;-51
2022/05/13 06:01:20;;;;;;;;;;;22.70;42.90;;;;;;6138545;28;19929;-49
2022/05/13 06:04:22;;;;;;;;;;;22.80;43.10;;;;;;6155573;28;19929;-48
2022/05/13 06:07:26;;;;;;;;;;;22.70;42.80;;;;;;6154029;28;20051;-48
2022/05/13 06:10:28;;;;;;;;;;;22.70;42.80;;;;;;6158851;28;20019;-51
2022/05/13 06:13:30;;;;;;;;;;;23.00;43.10;;;;;;6142577;28;19950;-48
2022/05/13 06:16:32;;;;;;;;;;;22.70;43.00;;;;;;6149537;28;20036;-49
2022/05/13 06:19:33;;;;;;;;;;;22.50;43.00;;;;;;6134837;28;19936;-49
2022/05/13 06:22:35;;;;;;;;;;;22.50;42.80;;;;;;6142559;28;19929;-48
2022/05/13 06:25:38;;;;;;;;;;;22.80;43.00;;;;;;6139555;28;20143;-50
2022/05/13 06:28:40;;;;;;;;;;;22.80;43.10;;;;;;6092271;28;20057;-53
2022/05/13 06:31:42;;;;;;;;;;;22.70;42.90;;;;;;6071330;28;19936;-46
2022/05/13 06:34:44;;;;;;;;;;;22.70;43.10;;;;;;6110946;28;20038;-50
2022/05/13 06:37:46;;;;;;;;;;;22.80;42.50;;;;;;6122495;28;20842;-48
2022/05/13 06:40:48;;;;;;;;;;;22.70;42.80;;;;;;6110644;28;19929;-48
2022/05/13 06:43:50;;;;;;;;;;;22.70;42.90;;;;;;6111321;28;21013;-51
2022/05/13 06:46:51;;;;;;;;;;;23.10;43.10;;;;;;6099613;28;20059;-47
2022/05/13 06:49:53;;;;;;;;;;;22.90;43.00;;;;;;6064113;28;19979;-51
2022/05/13 06:52:54;;;;;;;;;;;22.70;42.90;;;;;;6053022;28;19951;-47
2022/05/13 06:56:01;;;;;;;;;;;22.60;43.00;;;;;;6046524;28;20003;-53
2022/05/13 06:59:04;;;;;;;;;;;22.90;43.00;;;;;;6027073;28;20027;-51
2022/05/13 07:02:08;;;;;;;;;;;22.40;42.70;;;;;;6023484;28;19929;-52
2022/05/13 07:05:11;;;;;;;;;;;22.90;43.00;;;;;;6034504;28;20009;-49
2022/05/13 07:08:12;;;;;;;;;;;22.60;43.00;;;;;;5964142;28;19928;-50
2022/05/13 07:11:14;;;;;;;;;;;22.90;43.10;;;;;;5969887;28;19928;-49
2022/05/13 07:14:17;;;;;;;;;;;22.80;43.00;;;;;;6041254;28;20063;-47
2022/05/13 07:17:18;;;;;;;;;;;23.00;43.00;;;;;;6027134;28;19930;-48
2022/05/13 07:20:21;;;;;;;;;;;23.00;43.10;;;;;;6003389;28;20277;-52
2022/05/13 07:23:23;;;;;;;;;;;23.00;43.00;;;;;;6037177;28;20060;-48
2022/05/13 07:26:24;;;;;;;;;;;22.70;42.80;;;;;;6033936;28;21463;-48
2022/05/13 07:29:26;;;;;;;;;;;22.70;42.70;;;;;;6004367;28;19928;-48
2022/05/13 07:32:28;;;;;;;;;;;23.00;42.90;;;;;;5993253;28;19999;-50
2022/05/13 07:35:29;;;;;;;;;;;23.00;42.90;;;;;;6022125;28;19996;-46
2022/05/13 07:38:31;;;;;;;;;;;22.80;42.80;;;;;;6033111;28;19944;-49
2022/05/13 07:41:32;;;;;;;;;;;23.10;43.00;;;;;;6033847;28;19933;-46
2022/05/13 07:48:02;;;;;;;;;;;23.00;42.80;;;;;;6012725;28;19937;-48
2022/05/13 07:51:03;;;;;;;;;;;23.00;42.80;;;;;;6059027;28;19936;-48
2022/05/13 07:54:10;;;;;;;;;;;23.10;42.90;;;;;;6051807;28;21419;-52
2022/05/13 07:57:12;;;;;;;;;;;23.10;42.80;;;;;;6024636;28;20056;-46
2022/05/13 08:00:32;;;;;;;;;;;23.10;42.70;;;;;;6012766;28;19936;-50
2022/05/13 08:03:34;;;;;;;;;;;23.20;42.90;;;;;;6019444;28;19928;-49
2022/05/13 08:06:36;;;;;;;;;;;23.20;42.90;;;;;;6015961;28;19944;-49
2022/05/13 08:09:37;;;;;;;;;;;23.10;42.80;;;;;;6024169;28;20119;-49
2022/05/13 08:12:39;;;;;;;;;;;23.30;42.80;;;;;;6017006;28;20051;-49
2022/05/13 08:15:41;;;;;;;;;;;23.40;42.80;;;;;;6025891;28;20071;-49
2022/05/13 08:18:43;;;;;;;;;;;23.30;42.80;;;;;;6021839;28;19929;-47
2022/05/13 08:21:44;;;;;;;;;;;23.00;42.60;;;;;;6023232;28;19929;-47
2022/05/13 08:24:45;;;;;;;;;;;23.40;42.80;;;;;;6033984;28;19936;-49
2022/05/13 08:27:47;;;;;;;;;;;23.40;42.90;;;;;;6004415;28;21032;-47
2022/05/13 08:30:49;;;;;;;;;;;23.30;42.70;;;;;;5995390;28;19936;-48
2022/05/13 08:33:51;;;;;;;;;;;23.20;42.60;;;;;;5977733;28;21085;-52
2022/05/13 08:36:53;;;;;;;;;;;23.00;42.60;;;;;;5983829;28;20771;-49
2022/05/13 08:39:55;;;;;;;;;;;23.70;42.80;;;;;;6011062;28;19929;-52
2022/05/13 08:42:58;;;;;;;;;;;23.20;43.30;;;;;;5988565;28;21053;-49
2022/05/13 08:46:17;;;;;;;;;;;23.40;42.80;;;;;;5957820;28;20002;-47
2022/05/13 08:49:47;;;;;;;;;;;23.50;42.80;;;;;;6012308;28;21569;-48
2022/05/13 08:53:08;;;;;;;;;;;23.50;42.70;;;;;;6006942;28;19929;-49
2022/05/13 08:56:11;;;;;;;;;;;23.50;42.80;;;;;;5998723;28;19929;-50
2022/05/13 08:59:16;;;;;;;;;;;23.10;42.80;;;;;;6023562;28;21946;-45
2022/05/13 09:05:48;;;;;;;;;;;23.50;42.70;;;;;;6028459;28;19929;-48
2022/05/13 09:08:49;;;;;;;;;;;23.50;42.70;;;;;;6051374;28;19929;-47
2022/05/13 09:11:56;;;;;;;;;;;23.60;42.70;;;;;;6016346;28;21034;-46
2022/05/13 09:15:04;;;;;;;;;;;23.50;42.70;;;;;;6034934;28;21878;-49
2022/05/13 09:18:08;;;;;;;;;;;23.50;42.40;;;;;;6047815;28;20040;-49
2022/05/13 09:21:13;;;;;;;;;;;23.60;42.60;;;;;;6020221;28;19928;-48
2022/05/13 09:24:14;;;;;;;;;;;23.40;42.60;;;;;;6036770;28;19929;-47
2022/05/13 09:27:16;;;;;;;;;;;23.60;42.70;;;;;;6018139;28;20022;-51
2022/05/13 09:30:18;;;;;;;;;;;23.60;42.60;;;;;;6027685;28;19928;-50
2022/05/13 09:33:22;;;;;;;;;;;23.60;42.60;;;;;;6021503;28;20015;-48
2022/05/13 09:36:34;;;;;;;;;;;23.60;42.60;;;;;;6043949;28;19935;-47
2022/05/13 09:39:36;;;;;;;;;;;23.40;42.50;;;;;;6006661;28;19935;-45
2022/05/13 09:42:38;;;;;;;;;;;23.70;42.70;;;;;;6036931;28;22095;-50
2022/05/13 09:45:40;;;;;;;;;;;23.70;42.70;;;;;;6018877;28;19933;-46
2022/05/13 09:48:51;;;;;;;;;;;23.50;42.50;;;;;;6015134;28;20154;-51
2022/05/13 09:51:55;;;;;;;;;;;23.60;42.60;;;;;;6038024;28;20823;-46
2022/05/13 09:55:03;;;;;;;;;;;23.60;42.50;;;;;;6035743;28;19936;-45
2022/05/13 09:58:08;;;;;;;;;;;23.40;42.50;;;;;;6048874;28;19986;-50
2022/05/13 10:01:11;;;;;;;;;;;23.30;42.40;;;;;;6041663;28;20404;-46
2022/05/13 10:04:14;;;;;;;;;;;23.60;42.50;;;;;;6029958;28;20013;-48
2022/05/13 10:07:16;;;;;;;;;;;23.80;42.70;;;;;;6025921;28;19929;-48
2022/05/13 10:17:05;;;;;;;;;;;23.80;42.50;;;;;;6045527;28;20587;-46
2022/05/13 10:23:38;;;;;;;;;;;23.80;43.10;;;;;;6078476;28;19929;-46
2022/05/13 10:26:41;;;;;;;;;;;23.70;42.40;;;;;;6086246;28;19929;-49
2022/05/13 10:29:45;;;;;;;;;;;23.80;42.50;;;;;;6060579;28;22805;-49
2022/05/13 10:33:00;;;;;;;;;;;23.60;42.40;;;;;;6032403;28;19999;-50
2022/05/13 10:36:08;;;;;;;;;;;23.60;42.40;;;;;;6063154;28;19937;-50
2022/05/13 10:39:11;;;;;;;;;;;23.30;42.10;;;;;;6110002;28;19929;-48
2022/05/13 10:42:16;;;;;;;;;;;23.70;42.30;;;;;;6079084;28;19929;-48
2022/05/13 10:45:20;;;;;;;;;;;23.70;42.30;;;;;;6090297;28;29855;-50
2022/05/13 10:48:26;;;;;;;;;;;24.20;42.50;;;;;;6088221;28;19929;-51
2022/05/13 10:51:31;;;;;;;;;;;23.60;42.10;;;;;;6094234;28;19953;-47
2022/05/13 10:54:38;;;;;;;;;;;23.90;42.30;;;;;;6097031;28;21682;-47
2022/05/13 10:57:42;;;;;;;;;;;23.90;42.20;;;;;;6109823;28;19967;-52
2022/05/13 11:00:48;;;;;;;;;;;23.70;42.60;;;;;;6078114;28;20019;-49
2022/05/13 11:03:57;;;;;;;;;;;23.60;42.00;;;;;;6101022;28;19956;-51
2022/05/13 11:07:07;;;;;;;;;;;23.80;42.00;;;;;;6108636;28;19936;-50
2022/05/13 11:10:15;;;;;;;;;;;23.90;42.00;;;;;;6109546;28;19933;-50
2022/05/13 11:13:19;;;;;;;;;;;24.10;42.10;;;;;;6113233;28;19928;-47
2022/05/13 11:16:28;;;;;;;;;;;24.00;42.00;;;;;;6095527;28;19930;-48
2022/05/13 11:19:31;;;;;;;;;;;23.80;41.90;;;;;;6103476;28;20955;-51
2022/05/13 11:22:37;;;;;;;;;;;24.00;41.90;;;;;;6086397;28;19936;-50
2022/05/13 11:29:02;;;;;;;;;;;24.00;41.90;;;;;;6102037;28;19929;-49
2022/05/13 11:32:12;;;;;;;;;;;24.00;41.90;;;;;;6107733;28;19938;-52
2022/05/13 11:35:21;;;;;;;;;;;23.90;41.80;;;;;;6087068;28;20875;-48
2022/05/13 11:38:26;;;;;;;;;;;23.80;41.80;;;;;;6097840;28;20074;-49
2022/05/13 11:41:33;;;;;;;;;;;23.90;41.80;;;;;;6082183;28;19929;-51
2022/05/13 11:45:09;;;;;;;;;;;24.00;41.90;;;;;;6086771;28;22398;-48
2022/05/13 11:48:17;;;;;;;;;;;24.10;41.90;;;;;;6027206;28;20048;-50
2022/05/13 11:51:19;;;;;;;;;;;24.10;42.00;;;;;;6061342;28;20051;-52
2022/05/13 11:54:23;;;;;;;;;;;24.00;42.10;;;;;;6070931;28;21394;-51
2022/05/13 11:57:27;;;;;;;;;;;24.00;41.90;;;;;;6070444;28;20064;-50
2022/05/13 12:00:36;;;;;;;;;;;24.20;42.00;;;;;;6022829;28;20352;-48
2022/05/13 12:03:38;;;;;;;;;;;24.00;41.90;;;;;;5992296;28;19929;-52
2022/05/13 12:06:54;;;;;;;;;;;24.00;41.90;;;;;;6016417;28;19928;-49
2022/05/13 12:09:58;;;;;;;;;;;24.00;41.90;;;;;;6024201;28;20146;-48
2022/05/13 12:13:05;;;;;;;;;;;24.10;42.00;;;;;;6038914;28;21443;-48
2022/05/13 12:16:13;;;;;;;;;;;24.30;42.10;;;;;;5969741;28;19980;-50
2022/05/13 12:19:23;;;;;;;;;;;24.10;41.90;;;;;;6015864;28;20056;-48
2022/05/13 12:22:34;;;;;;;;;;;24.00;41.90;;;;;;6008186;28;19954;-47
2022/05/13 12:25:49;;;;;;;;;;;24.20;42.00;;;;;;6038233;28;19935;-47
2022/05/13 12:29:06;;;;;;;;;;;24.00;41.90;;;;;;6047269;28;19932;-51
2022/05/13 12:32:15;;;;;;;;;;;23.80;41.80;;;;;;6037308;28;20104;-48
2022/05/13 12:38:59;;;;;;;;;;;24.00;41.90;;;;;;6008307;28;21324;-50
2022/05/13 12:42:09;;;;;;;;;;;24.00;41.90;;;;;;6057608;28;20019;-51
2022/05/13 12:45:12;;;;;;;;;;;23.90;41.80;;;;;;6015725;28;21338;-49
2022/05/13 12:48:16;;;;;;;;;;;24.00;41.90;;;;;;6050738;28;19964;-48
2022/05/13 12:51:19;;;;;;;;;;;24.00;41.90;;;;;;6020207;28;20394;-50
2022/05/13 12:54:22;;;;;;;;;;;23.80;41.80;;;;;;6017733;28;23326;-49
2022/05/13 12:57:27;;;;;;;;;;;24.00;41.80;;;;;;6037361;28;22098;-49
2022/05/13 13:00:42;;;;;;;;;;;24.20;41.90;;;;;;6004530;28;19936;-48
2022/05/13 13:03:45;;;;;;;;;;;23.80;41.70;;;;;;6035867;28;20430;-49
2022/05/13 13:06:48;;;;;;;;;;;24.20;41.90;;;;;;6005781;28;23892;-47
2022/05/13 13:09:51;;;;;;;;;;;24.00;41.80;;;;;;5986456;28;19929;-47
2022/05/13 13:13:02;;;;;;;;;;;24.00;41.90;;;;;;6013536;28;19929;-53
2022/05/13 13:16:06;;;;;;;;;;;24.00;41.80;;;;;;6015077;28;21224;-51
2022/05/13 13:19:11;;;;;;;;;;;24.00;41.90;;;;;;6023444;28;19964;-51
2022/05/13 13:22:13;;;;;;;;;;;24.10;41.90;;;;;;6036167;28;20886;-50
2022/05/13 13:25:23;;;;;;;;;;;24.20;41.90;;;;;;6021263;28;20913;-47
2022/05/13 13:28:27;;;;;;;;;;;24.00;41.80;;;;;;6017221;28;19929;-48
2022/05/13 13:31:31;;;;;;;;;;;23.90;41.70;;;;;;6002417;28;20063;-45
2022/05/13 13:34:34;;;;;;;;;;;24.10;41.90;;;;;;5958147;28;19928;-46
2022/05/13 13:37:37;;;;;;;;;;;23.70;41.70;;;;;;5965061;28;20316;-50
2022/05/13 13:40:41;;;;;;;;;;;24.10;41.90;;;;;;5954938;28;20926;-48
2022/05/13 13:43:44;;;;;;;;;;;24.00;41.80;;;;;;5948179;28;20366;-49
2022/05/13 13:46:48;;;;;;;;;;;23.80;41.70;;;;;;5982498;28;19933;-48
2022/05/13 13:49:49;;;;;;;;;;;24.20;41.90;;;;;;5969753;28;24596;-50
2022/05/13 13:52:51;;;;;;;;;;;24.20;41.80;;;;;;5971162;28;20399;-49
2022/05/13 13:55:53;;;;;;;;;;;24.40;41.90;;;;;;6005003;28;20030;-50
2022/05/13 13:59:05;;;;;;;;;;;24.20;41.80;;;;;;6012070;28;19936;-53
2022/05/13 14:02:08;;;;;;;;;;;24.00;41.80;;;;;;5970152;28;19936;-48
2022/05/13 14:05:10;;;;;;;;;;;24.10;41.80;;;;;;5978347;28;19929;-49
2022/05/13 14:08:14;;;;;;;;;;;24.20;41.80;;;;;;5985046;28;21549;-48
2022/05/13 14:11:17;;;;;;;;;;;24.00;41.60;;;;;;5970189;28;20053;-48
2022/05/13 14:14:41;;;;;;;;;;;24.00;41.60;;;;;;5996450;28;19928;-48
2022/05/13 14:17:47;;;;;;;;;;;23.70;41.50;;;;;;6005515;28;20011;-48
2022/05/13 14:20:54;;;;;;;;;;;23.90;41.60;;;;;;5993089;28;19954;-52
2022/05/13 14:23:56;;;;;;;;;;;24.10;41.60;;;;;;5988120;28;20011;-46
2022/05/13 14:27:00;;;;;;;;;;;24.00;41.60;;;;;;6006870;28;19968;-48
2022/05/13 14:30:06;;;;;;;;;;;24.00;41.60;;;;;;6003010;28;19929;-48
2022/05/13 14:33:08;;;;;;;;;;;24.10;41.60;;;;;;6011471;28;19929;-49
2022/05/13 14:36:10;;;;;;;;;;;24.00;41.90;;;;;;6024188;28;20885;-51
2022/05/13 14:42:31;;;;;;;;;;;24.00;41.50;;;;;;6021043;28;20055;-48
2022/05/13 14:45:35;;;;;;;;;;;24.10;41.60;;;;;;6010276;28;19935;-49
2022/05/13 14:48:36;;;;;;;;;;;24.10;41.50;;;;;;5987589;28;19979;-49
2022/05/13 14:51:41;;;;;;;;;;;23.90;41.50;;;;;;6015290;28;19929;-47
2022/05/13 14:54:45;;;;;;;;;;;24.10;41.50;;;;;;6033738;28;21243;-51
2022/05/13 14:57:48;;;;;;;;;;;24.10;41.50;;;;;;6024180;28;20619;-49
2022/05/13 15:00:51;;;;;;;;;;;23.80;41.30;;;;;;6012107;28;19929;-48
2022/05/13 15:03:53;;;;;;;;;;;24.10;41.50;;;;;;5984336;28;20114;-52
2022/05/13 15:06:55;;;;;;;;;;;24.10;41.50;;;;;;5960459;28;20063;-47
2022/05/13 15:09:57;;;;;;;;;;;24.20;41.60;;;;;;6027435;28;19929;-46
2022/05/13 15:12:58;;;;;;;;;;;24.10;41.40;;;;;;6040651;28;19929;-52
2022/05/13 15:16:00;;;;;;;;;;;24.00;41.40;;;;;;6035849;28;19928;-49
2022/05/13 15:19:02;;;;;;;;;;;24.10;41.40;;;;;;6046666;28;20051;-52
2022/05/13 15:22:06;;;;;;;;;;;24.30;41.50;;;;;;6070891;28;20155;-48
2022/05/13 15:25:08;;;;;;;;;;;24.20;41.40;;;;;;6081966;28;19943;-48
2022/05/13 15:28:11;;;;;;;;;;;24.10;41.40;;;;;;6088216;28;21942;-50
2022/05/13 15:31:14;;;;;;;;;;;24.10;41.40;;;;;;6082841;28;19928;-53
2022/05/13 15:34:16;;;;;;;;;;;24.20;41.50;;;;;;6083230;28;19925;-47
2022/05/13 15:37:18;;;;;;;;;;;24.10;41.40;;;;;;6091984;28;20071;-50
2022/05/13 15:40:20;;;;;;;;;;;24.20;41.40;;;;;;6078126;28;20055;-49
2022/05/13 15:43:47;;;;;;;;;;;24.10;41.30;;;;;;6089640;28;20946;-48
2022/05/13 15:46:49;;;;;;;;;;;24.20;41.40;;;;;;6103356;28;20880;-53
2022/05/13 15:53:07;;;;;;;;;;;24.20;41.30;;;;;;6114212;28;20056;-53
2022/05/13 15:56:12;;;;;;;;;;;24.20;41.30;;;;;;6096923;28;19936;-53
2022/05/13 15:59:14;;;;;;;;;;;24.30;41.40;;;;;;6093594;28;20083;-53
2022/05/13 16:02:16;;;;;;;;;;;24.10;41.30;;;;;;6109478;28;19975;-53
2022/05/13 16:05:19;;;;;;;;;;;24.20;41.20;;;;;;6103213;28;19928;-55
2022/05/13 16:08:20;;;;;;;;;;;24.20;41.30;;;;;;6099949;28;21043;-53
2022/05/13 16:11:25;;;;;;;;;;;23.70;41.10;;;;;;6128800;28;21976;-54
2022/05/13 16:14:28;;;;;;;;;;;24.10;41.30;;;;;;6123819;28;19996;-53
2022/05/13 16:17:31;;;;;;;;;;;24.00;41.30;;;;;;6102293;28;20000;-49
2022/05/13 16:20:33;;;;;;;;;;;24.20;41.30;;;;;;6117126;28;19929;-50
2022/05/13 16:23:36;;;;;;;;;;;24.00;41.30;;;;;;6111460;28;19969;-50
2022/05/13 16:26:37;;;;;;;;;;;24.30;41.40;;;;;;6111763;28;19929;-52
2022/05/13 16:29:39;;;;;;;;;;;24.00;41.20;;;;;;6115151;28;20956;-51
2022/05/13 16:32:41;;;;;;;;;;;24.10;41.20;;;;;;6129286;28;20160;-51
2022/05/13 16:35:42;;;;;;;;;;;23.90;41.10;;;;;;6140307;28;19929;-50
2022/05/13 16:38:46;;;;;;;;;;;24.10;41.20;;;;;;6125469;28;20797;-50
2022/05/13 16:41:47;;;;;;;;;;;24.30;41.30;;;;;;6132663;28;20689;-50
2022/05/13 16:44:48;;;;;;;;;;;24.30;41.30;;;;;;6124125;28;20561;-50
2022/05/13 16:47:51;;;;;;;;;;;24.20;41.10;;;;;;6113458;28;20564;-53
2022/05/13 16:50:52;;;;;;;;;;;24.00;41.00;;;;;;6119807;28;20262;-50
2022/05/13 16:53:54;;;;;;;;;;;24.20;41.10;;;;;;6109288;28;20431;-55
2022/05/13 16:56:55;;;;;;;;;;;24.20;41.00;;;;;;6110967;28;20283;-52
2022/05/13 16:59:57;;;;;;;;;;;24.20;41.10;;;;;;6124017;28;20574;-50
2022/05/13 17:02:59;;;;;;;;;;;24.20;41.00;;;;;;6141228;28;20018;-54
2022/05/13 17:06:00;;;;;;;;;;;24.20;41.10;;;;;;6150561;28;19934;-54
2022/05/13 17:22:08;;;;;;;;;;;24.40;41.00;;;;;;6147343;28;20791;-53
2022/05/13 17:25:10;;;;;;;;;;;24.30;40.90;;;;;;6157023;28;19940;-50
2022/05/13 17:28:11;;;;;;;;;;;24.10;40.80;;;;;;6133125;28;19928;-51
2022/05/13 17:31:13;;;;;;;;;;;24.30;40.80;;;;;;6139481;28;19929;-50
2022/05/13 17:34:15;;;;;;;;;;;24.30;40.80;;;;;;6138848;28;19936;-51
2022/05/13 17:37:20;;;;;;;;;;;24.20;40.80;;;;;;6147038;28;19929;-54
2022/05/13 17:40:22;;;;;;;;;;;24.30;40.80;;;;;;6140980;28;20074;-51
2022/05/13 17:43:24;;;;;;;;;;;24.30;40.70;;;;;;6124633;28;21160;-52
2022/05/13 17:46:25;;;;;;;;;;;24.30;41.30;;;;;;6149195;28;19929;-52
2022/05/13 17:49:28;;;;;;;;;;;24.40;40.70;;;;;;6149125;28;20619;-51
2022/05/13 17:52:29;;;;;;;;;;;24.10;40.60;;;;;;6137265;28;20265;-52
2022/05/13 17:55:31;;;;;;;;;;;24.40;40.70;;;;;;6155303;28;20636;-52
2022/05/13 17:58:32;;;;;;;;;;;24.40;40.70;;;;;;6148372;28;20319;-50
2022/05/13 18:01:34;;;;;;;;;;;24.50;40.80;;;;;;6156841;28;19939;-52
2022/05/13 18:04:36;;;;;;;;;;;24.40;40.70;;;;;;6147918;28;20388;-54
2022/05/13 18:07:38;;;;;;;;;;;24.50;40.70;;;;;;6138550;28;20802;-50
2022/05/13 18:10:39;;;;;;;;;;;24.30;40.70;;;;;;6137147;28;19947;-53
2022/05/13 18:13:41;;;;;;;;;;;24.70;40.90;;;;;;6153758;28;20003;-54
2022/05/13 18:16:42;;;;;;;;;;;24.30;40.70;;;;;;6155745;28;20146;-54
2022/05/13 18:19:44;;;;;;;;;;;24.20;40.70;;;;;;6157171;28;20315;-55
2022/05/13 18:22:46;;;;;;;;;;;24.40;40.80;;;;;;6156182;28;20349;-50
2022/05/13 18:25:48;;;;;;;;;;;24.30;40.80;;;;;;6167263;28;20002;-55
2022/05/13 18:28:50;;;;;;;;;;;24.40;40.80;;;;;;6151470;28;21691;-51
2022/05/13 18:31:52;;;;;;;;;;;24.40;40.80;;;;;;6161103;28;19928;-51
2022/05/13 18:34:54;;;;;;;;;;;24.20;40.70;;;;;;6158879;28;20459;-52
2022/05/13 18:37:55;;;;;;;;;;;24.40;40.80;;;;;;6168825;28;19929;-54
2022/05/13 18:47:24;;;;;;;;;;;24.30;40.80;;;;;;6178380;28;20551;-54
2022/05/13 18:50:30;;;;;;;;;;;24.20;40.70;;;;;;6173326;28;19975;-52
2022/05/13 18:53:32;;;;;;;;;;;24.30;40.70;;;;;;6160155;28;20047;-55
2022/05/13 18:56:35;;;;;;;;;;;24.50;40.90;;;;;;6143256;28;19957;-55
2022/05/13 18:59:37;;;;;;;;;;;24.20;41.40;;;;;;6151802;28;19928;-52